createdAt,value
2019-02-24T00:02:47.886Z,10.48
2019-02-24T00:05:39.458Z,6.65
2019-02-24T00:08:35.439Z,8.48
2019-02-24T00:11:26.237Z,16.27
2019-02-24T00:14:17.377Z,6.95
2019-02-24T00:17:08.628Z,9.73
2019-02-24T00:19:59.670Z,7.87
2019-02-24T00:22:51.159Z,6.75
2019-02-24T00:25:42.262Z,6.67
2019-02-24T00:28:33.477Z,16.05
2019-02-24T00:31:24.462Z,8.28
2019-02-24T00:34:17.444Z,13.00
2019-02-24T00:37:08.177Z,2.40
2019-02-24T00:40:00.349Z,9.25
2019-02-24T00:42:52.341Z,4.87
2019-02-24T00:45:44.092Z,7.55
2019-02-24T00:48:35.175Z,16.07
2019-02-24T00:51:26.244Z,5.75
2019-02-24T00:54:16.962Z,16.90
2019-02-24T00:57:07.515Z,12.28
2019-02-24T01:00:04.632Z,7.70
2019-02-24T01:02:55.473Z,15.45
2019-02-24T01:05:57.297Z,11.20
2019-02-24T01:08:47.874Z,21.30
2019-02-24T01:11:39.979Z,19.50
2019-02-24T01:14:30.913Z,11.12
2019-02-24T01:17:37.101Z,11.45
2019-02-24T01:20:29.068Z,12.95
2019-02-24T01:23:20.483Z,7.95
2019-02-24T01:26:14.634Z,11.08
2019-02-24T01:31:59.302Z,16.55
2019-02-24T01:34:49.970Z,10.53
2019-02-24T01:37:40.846Z,20.25
2019-02-24T01:40:32.159Z,11.73
2019-02-24T01:43:22.611Z,9.70
2019-02-24T01:46:14.665Z,20.62
2019-02-24T01:49:08.301Z,13.43
2019-02-24T01:52:00.715Z,11.63
2019-02-24T01:54:51.303Z,16.67
2019-02-24T01:57:46.440Z,19.73
2019-02-24T02:00:37.747Z,10.05
2019-02-24T02:03:28.258Z,10.95
2019-02-24T02:06:18.948Z,15.65
2019-02-24T02:09:13.424Z,21.80
2019-02-24T02:12:04.245Z,16.15
2019-02-24T02:14:56.538Z,25.52
2019-02-24T02:21:01.175Z,15.63
2019-02-24T02:23:52.611Z,22.00
2019-02-24T02:26:47.868Z,11.85
2019-02-24T02:29:38.627Z,8.20
2019-02-24T02:32:36.070Z,20.25
2019-02-24T02:35:27.272Z,15.78
2019-02-24T02:38:18.180Z,23.38
2019-02-24T02:41:09.292Z,24.37
2019-02-24T02:44:04.900Z,26.62
2019-02-24T02:46:59.342Z,26.25
2019-02-24T02:49:50.422Z,27.22
2019-02-24T02:52:40.882Z,29.10
2019-02-24T02:55:32.094Z,19.02
2019-02-24T02:58:22.540Z,14.65
2019-02-24T03:01:49.025Z,21.48
2019-02-24T03:05:04.360Z,16.20
2019-02-24T03:07:57.466Z,13.45
2019-02-24T03:10:57.600Z,19.42
2019-02-24T03:13:55.155Z,16.57
2019-02-24T03:16:52.924Z,6.03
2019-02-24T03:23:01.199Z,7.78
2019-02-24T03:25:51.791Z,14.00
2019-02-24T03:28:47.656Z,13.38
2019-02-24T03:31:46.423Z,7.85
2019-02-24T03:34:46.398Z,15.05
2019-02-24T03:37:38.002Z,18.40
2019-02-24T03:40:36.573Z,21.20
2019-02-24T03:43:31.814Z,21.68
2019-02-24T03:46:27.543Z,11.65
2019-02-24T03:49:22.492Z,14.83
2019-02-24T03:52:23.570Z,17.50
2019-02-24T03:55:33.909Z,14.93
2019-02-24T03:58:27.781Z,17.60
2019-02-24T04:08:21.105Z,9.60
2019-02-24T04:11:20.361Z,19.42
2019-02-24T04:14:12.366Z,14.80
2019-02-24T04:17:26.136Z,22.73
2019-02-24T04:23:24.658Z,12.98
2019-02-24T04:26:17.939Z,10.75
2019-02-24T04:29:11.169Z,16.25
2019-02-24T04:35:26.030Z,21.25
2019-02-24T04:41:44.655Z,18.45
2019-02-24T05:04:00.402Z,14.98
2019-02-24T05:06:52.740Z,26.57
2019-02-24T05:12:52.345Z,19.30
2019-02-24T05:15:51.712Z,22.27
2019-02-24T05:18:52.638Z,26.25
2019-02-24T05:21:55.359Z,27.95
2019-02-24T05:24:56.222Z,20.50
2019-02-24T05:27:52.296Z,21.07
2019-02-24T05:30:51.953Z,21.20
2019-02-24T05:33:46.754Z,14.70
2019-02-24T05:36:45.250Z,17.40
2019-02-24T05:39:36.182Z,21.33
2019-02-24T05:42:39.002Z,28.47
2019-02-24T05:45:29.174Z,31.17
2019-02-24T05:48:26.450Z,19.37
2019-02-24T05:51:49.635Z,21.40
2019-02-24T06:22:05.043Z,21.33
2019-02-24T06:28:45.947Z,29.77
2019-02-24T06:38:52.291Z,15.85
2019-02-24T06:42:13.200Z,23.87
2019-02-24T06:45:45.964Z,14.95
2019-02-24T06:48:38.102Z,30.03
2019-02-24T06:51:40.879Z,23.35
2019-02-24T06:54:58.771Z,22.62
2019-02-24T06:57:54.172Z,15.70
2019-02-24T07:00:44.775Z,27.13
2019-02-24T07:04:02.102Z,21.20
2019-02-24T07:07:00.892Z,18.20
2019-02-24T07:10:36.069Z,16.85
2019-02-24T07:14:29.276Z,17.70
2019-02-24T07:27:46.173Z,20.15
2019-02-24T07:30:47.680Z,21.42
2019-02-24T07:37:48.996Z,22.17
2019-02-24T07:39:22.771Z,19.07
2019-02-24T07:42:16.351Z,27.65
2019-02-24T07:48:57.978Z,19.87
2019-02-24T07:51:55.974Z,23.32
2019-02-24T07:54:47.428Z,18.73
2019-02-24T07:57:49.238Z,30.60
2019-02-24T08:00:45.706Z,14.63
2019-02-24T08:03:40.877Z,98.65
2019-02-24T08:06:33.974Z,25.68
2019-02-24T08:09:25.019Z,20.45
2019-02-24T08:12:16.229Z,22.80
2019-02-24T08:15:11.199Z,42.70
2019-02-24T08:18:07.236Z,26.33
2019-02-24T08:21:02.137Z,23.47
2019-02-24T08:23:56.698Z,31.17
2019-02-24T08:26:47.903Z,39.40
2019-02-24T08:29:39.821Z,33.05
2019-02-24T08:32:31.079Z,25.62
2019-02-24T08:35:24.201Z,23.22
2019-02-24T08:38:17.868Z,55.63
2019-02-24T08:44:22.379Z,35.05
2019-02-24T08:51:01.515Z,31.23
2019-02-24T08:53:56.583Z,35.03
2019-02-24T08:56:47.689Z,21.15
2019-02-24T08:59:39.767Z,26.65
2019-02-24T09:02:33.700Z,44.05
2019-02-24T09:05:24.913Z,27.22
2019-02-24T09:08:16.089Z,28.80
2019-02-24T09:14:21.392Z,33.42
2019-02-24T09:17:11.934Z,19.10
2019-02-24T09:20:02.996Z,22.73
2019-02-24T09:22:56.925Z,32.03
2019-02-24T09:25:50.272Z,34.75
2019-02-24T09:28:44.490Z,36.85
2019-02-24T09:31:39.175Z,23.80
2019-02-24T09:34:30.297Z,37.50
2019-02-24T09:37:26.520Z,39.60
2019-02-24T09:40:19.543Z,26.50
2019-02-24T09:43:09.917Z,30.87
2019-02-24T09:46:05.735Z,28.45
2019-02-24T09:48:59.090Z,26.42
2019-02-24T09:51:50.026Z,30.93
2019-02-24T09:54:40.867Z,24.60
2019-02-24T09:57:31.767Z,25.23
2019-02-24T10:00:22.714Z,20.08
2019-02-24T10:03:13.467Z,32.00
2019-02-24T10:06:09.722Z,30.68
2019-02-24T10:09:02.359Z,26.33
2019-02-24T10:11:54.827Z,28.17
2019-02-24T10:18:05.016Z,27.67
2019-02-24T10:20:57.330Z,40.80
2019-02-24T10:23:48.262Z,28.77
2019-02-24T10:26:39.439Z,35.95
2019-02-24T10:29:31.330Z,29.57
2019-02-24T10:32:22.205Z,37.77
2019-02-24T10:35:13.725Z,34.90
2019-02-24T10:38:05.438Z,34.13
2019-02-24T10:40:56.048Z,33.05
2019-02-24T10:43:47.127Z,37.67
2019-02-24T10:46:37.896Z,34.90
2019-02-24T10:49:28.708Z,32.65
2019-02-24T10:52:22.321Z,28.45
2019-02-24T10:55:13.772Z,29.75
2019-02-24T10:58:04.417Z,37.00
2019-02-24T11:00:57.947Z,42.58
2019-02-24T11:03:49.417Z,29.02
2019-02-24T11:06:40.322Z,32.90
2019-02-24T11:09:31.396Z,29.57
2019-02-24T11:12:22.610Z,38.53
2019-02-24T11:15:14.681Z,35.30
2019-02-24T11:18:09.847Z,41.05
2019-02-24T11:21:01.675Z,34.95
2019-02-24T11:23:53.413Z,56.58
2019-02-24T11:26:44.817Z,37.28
2019-02-24T11:29:37.644Z,27.42
2019-02-24T11:32:37.398Z,28.38
2019-02-24T11:35:28.943Z,30.92
2019-02-24T11:38:22.531Z,31.05
2019-02-24T11:41:13.577Z,31.82
2019-02-24T11:44:04.896Z,34.30
2019-02-24T11:46:56.633Z,33.90
2019-02-24T11:49:47.619Z,22.95
2019-02-24T11:52:39.250Z,41.25
2019-02-24T11:55:30.360Z,28.83
2019-02-24T11:58:21.218Z,39.08
2019-02-24T12:01:12.637Z,28.77
2019-02-24T12:04:09.683Z,33.10
2019-02-24T12:07:01.776Z,35.30
2019-02-24T12:09:53.664Z,42.08
2019-02-24T12:12:44.408Z,37.08
2019-02-24T12:15:35.114Z,35.90
2019-02-24T12:18:26.838Z,42.43
2019-02-24T12:21:19.477Z,35.28
2019-02-24T12:24:13.170Z,27.62
2019-02-24T12:27:04.672Z,32.50
2019-02-24T12:29:57.248Z,31.62
2019-02-24T12:32:47.443Z,22.27
2019-02-24T12:35:38.612Z,40.23
2019-02-24T12:38:29.601Z,31.48
2019-02-24T12:41:23.116Z,27.17
2019-02-24T12:44:14.066Z,26.93
2019-02-24T12:47:05.685Z,30.17
2019-02-24T12:50:03.249Z,33.30
2019-02-24T12:52:51.089Z,28.55
2019-02-24T12:55:42.071Z,31.87
2019-02-24T12:58:34.357Z,29.98
2019-02-24T13:01:25.692Z,36.60
2019-02-24T13:04:19.912Z,38.90
2019-02-24T13:07:14.683Z,37.80
2019-02-24T13:10:11.869Z,42.00
2019-02-24T13:13:04.740Z,34.53
2019-02-24T13:15:56.065Z,34.73
2019-02-24T13:18:47.090Z,47.45
2019-02-24T13:21:38.094Z,56.77
2019-02-24T13:24:29.042Z,40.50
2019-02-24T13:27:20.112Z,44.58
2019-02-24T13:30:12.848Z,33.42
2019-02-24T13:33:03.865Z,36.65
2019-02-24T13:35:55.810Z,36.05
2019-02-24T13:38:47.070Z,50.15
2019-02-24T13:41:42.336Z,40.03
2019-02-24T13:44:46.061Z,47.10
2019-02-24T13:47:36.824Z,48.52
2019-02-24T13:50:27.858Z,45.58
2019-02-24T13:53:19.083Z,42.43
2019-02-24T13:56:09.550Z,39.10
2019-02-24T13:59:00.844Z,36.75
2019-02-24T14:01:51.773Z,35.28
2019-02-24T14:04:43.047Z,51.40
2019-02-24T14:07:34.892Z,36.25
2019-02-24T14:10:28.746Z,39.80
2019-02-24T14:13:18.955Z,46.63
2019-02-24T14:16:10.023Z,45.43
2019-02-24T14:19:00.987Z,44.90
2019-02-24T14:21:53.574Z,43.10
2019-02-24T14:25:39.162Z,55.40
2019-02-24T14:28:18.139Z,42.33
2019-02-24T14:31:12.941Z,36.40
2019-02-24T14:34:04.654Z,39.95
2019-02-24T14:40:13.342Z,49.00
2019-02-24T14:43:17.964Z,43.60
2019-02-24T14:46:11.827Z,49.30
2019-02-24T14:49:02.813Z,46.05
2019-02-24T14:52:07.815Z,44.73
2019-02-24T14:55:06.799Z,41.65
2019-02-24T14:57:58.201Z,49.05
2019-02-24T15:00:49.266Z,57.03
2019-02-24T15:03:45.520Z,54.95
2019-02-24T15:06:55.245Z,46.10
2019-02-24T15:09:46.782Z,44.48
2019-02-24T15:12:43.992Z,46.10
2019-02-24T15:15:39.334Z,42.70
2019-02-24T15:18:30.272Z,38.35
2019-02-24T15:21:21.403Z,52.27
2019-02-24T15:24:12.835Z,46.75
2019-02-24T15:27:04.510Z,42.85
2019-02-24T15:29:55.837Z,47.30
2019-02-24T15:32:51.680Z,41.55
2019-02-24T15:35:43.692Z,47.65
2019-02-24T15:38:37.577Z,39.10
2019-02-24T15:41:30.127Z,41.95
2019-02-24T15:44:21.672Z,42.00
2019-02-24T15:47:12.050Z,44.88
2019-02-24T15:50:03.465Z,45.25
2019-02-24T15:52:54.520Z,41.13
2019-02-24T15:55:45.553Z,48.45
2019-02-24T15:58:36.485Z,48.30
2019-02-24T16:01:32.231Z,44.20
2019-02-24T16:04:23.361Z,42.00
2019-02-24T16:07:16.259Z,43.20
2019-02-24T16:10:08.227Z,42.50
2019-02-24T16:13:16.652Z,44.23
2019-02-24T16:16:03.979Z,40.85
2019-02-24T16:18:54.561Z,65.87
2019-02-24T16:21:49.597Z,54.13
2019-02-24T16:24:40.866Z,45.38
2019-02-24T16:27:31.813Z,48.75
2019-02-24T16:30:23.734Z,42.95
2019-02-24T16:33:14.882Z,51.28
2019-02-24T16:36:07.409Z,24.85
2019-02-24T16:38:59.933Z,71.87
2019-02-24T16:41:51.706Z,32.03
2019-02-24T16:44:43.127Z,53.85
2019-02-24T16:47:35.114Z,46.40
2019-02-24T16:50:26.274Z,59.00
2019-02-24T16:53:17.578Z,45.30
2019-02-24T16:56:13.353Z,51.55
2019-02-24T16:59:04.725Z,33.42
2019-02-24T17:01:55.849Z,58.90
2019-02-24T17:04:47.207Z,92.05
2019-02-24T17:07:38.101Z,59.45
2019-02-24T17:10:30.802Z,66.57
2019-02-24T17:13:22.426Z,39.90
2019-02-24T17:16:13.253Z,62.30
2019-02-24T17:19:04.199Z,50.52
2019-02-24T17:21:55.086Z,45.92
2019-02-24T17:24:45.916Z,32.88
2019-02-24T17:27:51.579Z,35.40
2019-02-24T17:30:42.586Z,30.92
2019-02-24T17:33:33.962Z,54.67
2019-02-24T17:36:24.384Z,35.70
2019-02-24T17:39:17.864Z,47.33
2019-02-24T17:42:08.762Z,34.65
2019-02-24T17:44:59.595Z,40.98
2019-02-24T17:47:51.084Z,48.92
2019-02-24T17:50:41.968Z,42.00
2019-02-24T17:53:33.788Z,49.95
2019-02-24T17:56:24.774Z,52.95
2019-02-24T17:59:15.921Z,38.13
2019-02-24T18:02:07.879Z,40.60
2019-02-24T18:04:58.263Z,44.35
2019-02-24T18:07:50.093Z,49.38
2019-02-24T18:10:41.625Z,40.70
2019-02-24T18:13:34.627Z,41.40
2019-02-24T18:19:16.277Z,33.08
2019-02-24T18:22:08.720Z,31.80
2019-02-24T18:25:03.157Z,34.50
2019-02-24T18:27:52.570Z,30.55
2019-02-24T18:30:48.404Z,31.27
2019-02-24T18:33:48.440Z,25.45
2019-02-24T18:36:33.202Z,21.42
2019-02-24T18:39:30.243Z,51.50
2019-02-24T18:42:27.390Z,44.48
2019-02-24T18:45:21.549Z,29.65
2019-02-24T18:48:11.188Z,27.25
2019-02-24T18:51:01.935Z,29.40
2019-02-24T18:53:53.062Z,21.93
2019-02-24T18:56:48.372Z,29.05
2019-02-24T18:59:42.948Z,31.12
2019-02-24T19:02:32.426Z,20.60
2019-02-24T19:05:23.200Z,20.43
2019-02-24T19:08:15.331Z,25.60
2019-02-24T19:11:07.095Z,22.17
2019-02-24T19:13:58.253Z,21.65
2019-02-24T19:16:50.659Z,19.77
2019-02-24T19:19:45.727Z,27.07
2019-02-24T19:22:36.786Z,18.48
2019-02-24T19:25:27.911Z,25.30
2019-02-24T19:28:41.130Z,27.73
2019-02-24T19:31:33.212Z,23.47
2019-02-24T19:34:24.902Z,20.10
2019-02-24T19:37:16.036Z,28.95
2019-02-24T19:40:08.910Z,23.95
2019-02-24T19:43:00.282Z,25.57
2019-02-24T19:45:52.919Z,23.38
2019-02-24T19:48:45.632Z,23.30
2019-02-24T19:54:28.424Z,20.82
2019-02-24T19:57:20.966Z,16.45
2019-02-24T20:00:25.656Z,19.30
2019-02-24T20:03:16.754Z,23.90
2019-02-24T20:06:08.150Z,16.70
2019-02-24T20:08:58.958Z,17.60
2019-02-24T20:11:50.057Z,18.65
2019-02-24T20:14:41.485Z,22.40
2019-02-24T20:17:32.413Z,21.80
2019-02-24T20:20:23.928Z,19.60
2019-02-24T20:23:14.857Z,19.65
2019-02-24T20:26:05.934Z,22.67
2019-02-24T20:28:57.499Z,20.27
2019-02-24T20:31:48.245Z,24.80
2019-02-24T20:34:39.382Z,20.92
2019-02-24T20:37:30.277Z,22.37
2019-02-24T20:40:21.428Z,14.00
2019-02-24T20:43:12.172Z,16.57
2019-02-24T20:46:03.262Z,19.48
2019-02-24T20:48:53.955Z,13.60
2019-02-24T20:51:44.796Z,18.12
2019-02-24T20:54:38.074Z,19.00
2019-02-24T20:57:29.662Z,21.68
2019-02-24T21:00:32.603Z,21.00
2019-02-24T21:06:13.756Z,22.20
2019-02-24T21:09:04.505Z,19.65
2019-02-24T21:11:56.325Z,18.95
2019-02-24T21:14:47.781Z,20.10
2019-02-24T21:17:39.057Z,14.53
2019-02-24T21:20:31.282Z,21.42
2019-02-24T21:23:22.575Z,20.70
2019-02-24T21:26:13.644Z,17.48
2019-02-24T21:29:04.360Z,17.52
2019-02-24T21:31:55.774Z,14.40
2019-02-24T21:34:47.031Z,11.88
2019-02-24T21:37:38.458Z,16.60
2019-02-24T21:40:29.201Z,18.37
2019-02-24T21:43:20.506Z,15.98
2019-02-24T21:46:12.251Z,15.83
2019-02-24T21:49:03.230Z,15.38
2019-02-24T21:51:56.930Z,15.63
2019-02-24T21:54:49.439Z,11.78
2019-02-24T21:57:59.923Z,12.80
2019-02-24T22:00:50.781Z,10.75
2019-02-24T22:03:41.656Z,11.80
2019-02-24T22:06:33.080Z,12.40
2019-02-24T22:09:24.288Z,13.03
2019-02-24T22:12:14.961Z,11.97
2019-02-24T22:15:06.096Z,16.25
2019-02-24T22:17:57.446Z,16.90
2019-02-24T22:20:49.007Z,16.57
2019-02-24T22:23:39.960Z,17.87
2019-02-24T22:26:31.190Z,25.27
2019-02-24T22:29:25.276Z,16.70
2019-02-24T22:32:16.545Z,18.35
2019-02-24T22:35:08.206Z,19.25
2019-02-24T22:37:59.151Z,14.28
2019-02-24T22:40:54.344Z,16.32
2019-02-24T22:43:44.063Z,16.32
2019-02-24T22:46:34.808Z,14.83
2019-02-24T22:49:26.951Z,19.82
2019-02-24T22:52:18.953Z,12.53
2019-02-24T22:55:12.276Z,11.30
2019-02-24T22:58:03.975Z,13.93
2019-02-24T23:01:01.323Z,13.75
2019-02-24T23:03:52.512Z,10.70
2019-02-24T23:06:43.073Z,14.80
2019-02-24T23:09:34.300Z,13.80
2019-02-24T23:12:25.217Z,12.53
2019-02-24T23:15:16.993Z,21.42
2019-02-24T23:18:07.663Z,17.98
2019-02-24T23:20:58.132Z,7.20
2019-02-24T23:23:49.174Z,15.35
2019-02-24T23:26:40.028Z,11.25
2019-02-24T23:29:31.146Z,17.30
2019-02-24T23:32:22.315Z,14.58
2019-02-24T23:35:13.549Z,12.90
2019-02-24T23:38:07.802Z,12.05
2019-02-24T23:40:58.528Z,11.63
2019-02-24T23:43:49.650Z,9.45
2019-02-24T23:46:40.144Z,9.63
2019-02-24T23:49:30.605Z,9.23
2019-02-24T23:52:21.348Z,8.78
2019-02-24T23:55:12.858Z,8.80
2019-02-24T23:58:03.821Z,11.08
